Time;durP1;ratioP1;P1;durP2;ratioP2;P2;SDS_P1;SDS_P2;PMS_P1;PMS_P2;Temp;Humidity;BMP_temperature;BMP_pressure;BME280_temperature;BME280_humidity;BME280_pressure;Samples;Min_cycle;Max_cycle;Signal;HPM_P1;HPM_P2
2022/01/06 00:01:17;;;;;;;7.20;2.72;;;6.80;80.60;;;;;;5008090;28;20093;-56
2022/01/06 00:03:45;;;;;;;5.88;2.38;;;6.80;80.90;;;;;;5004169;28;20135;-56
2022/01/06 00:06:13;;;;;;;9.30;2.97;;;6.80;81.60;;;;;;4995578;28;20043;-56
2022/01/06 00:08:41;;;;;;;7.97;2.55;;;6.80;81.00;;;;;;5000520;28;20046;-54
2022/01/06 00:11:09;;;;;;;8.93;2.42;;;6.80;81.20;;;;;;4982639;28;20054;-56
2022/01/06 00:14:16;;;;;;;6.13;2.17;;;6.80;81.20;;;;;;5009913;28;20041;-56
2022/01/06 00:16:47;;;;;;;14.10;2.35;;;6.90;81.30;;;;;;5005579;28;20057;-55
2022/01/06 00:24:48;;;;;;;7.28;1.77;;;7.00;81.20;;;;;;4991565;28;20100;-56
2022/01/06 00:27:15;;;;;;;8.10;2.08;;;7.00;81.20;;;;;;4993482;28;20521;-53
2022/01/06 00:29:42;;;;;;;9.82;2.42;;;7.00;81.10;;;;;;5003589;28;20072;-56
2022/01/06 00:32:10;;;;;;;8.80;2.50;;;7.00;81.10;;;;;;5003791;28;20532;-55
2022/01/06 00:34:37;;;;;;;7.63;3.05;;;7.10;81.10;;;;;;5011944;28;20528;-52
2022/01/06 00:37:03;;;;;;;9.10;2.53;;;7.10;81.00;;;;;;5002537;28;20069;-57
2022/01/06 00:39:33;;;;;;;10.38;2.50;;;7.10;80.80;;;;;;5003398;28;20041;-54
2022/01/06 00:42:01;;;;;;;12.13;2.90;;;6.90;80.50;;;;;;5006102;28;20096;-52
2022/01/06 00:44:27;;;;;;;9.18;2.95;;;7.10;80.40;;;;;;5011702;28;20038;-56
2022/01/06 00:46:54;;;;;;;11.48;2.60;;;7.10;80.20;;;;;;4999337;28;20046;-56
2022/01/06 00:49:21;;;;;;;10.82;2.42;;;7.10;80.10;;;;;;4998960;28;20042;-56
2022/01/06 00:51:48;;;;;;;8.60;2.50;;;7.10;80.10;;;;;;5011807;28;20050;-55
2022/01/06 00:54:17;;;;;;;10.13;2.40;;;7.10;80.10;;;;;;5003505;28;20053;-56
2022/01/06 00:56:43;;;;;;;7.43;1.95;;;7.10;80.10;;;;;;4998202;28;20116;-52
2022/01/06 00:59:10;;;;;;;9.93;2.40;;;7.00;80.00;;;;;;4982141;28;20419;-56
2022/01/06 01:01:37;;;;;;;10.48;2.30;;;7.00;79.90;;;;;;5000099;28;20093;-57
2022/01/06 01:04:04;;;;;;;7.65;1.90;;;7.00;79.90;;;;;;4994034;28;20042;-56
2022/01/06 01:06:31;;;;;;;7.75;2.58;;;7.00;79.80;;;;;;4990476;28;20092;-56
2022/01/06 01:08:57;;;;;;;7.70;2.47;;;7.00;79.80;;;;;;4998472;28;20462;-53
2022/01/06 01:11:24;;;;;;;10.10;2.03;;;7.00;79.80;;;;;;4990869;28;20073;-56
2022/01/06 01:13:56;;;;;;;9.63;2.50;;;7.00;79.60;;;;;;4999041;28;20046;-54
2022/01/06 01:16:30;;;;;;;5.07;1.88;;;6.90;79.60;;;;;;5006181;28;20054;-58
2022/01/06 01:19:00;;;;;;;7.90;2.60;;;7.00;79.70;;;;;;5002610;28;20763;-55
2022/01/06 01:21:28;;;;;;;11.05;2.42;;;6.90;79.70;;;;;;5010685;28;20045;-52
2022/01/06 01:23:57;;;;;;;7.82;2.22;;;6.90;79.60;;;;;;5007099;28;20044;-56
2022/01/06 01:26:25;;;;;;;8.55;2.22;;;6.90;79.40;;;;;;5004258;28;20103;-55
2022/01/06 01:28:52;;;;;;;6.57;1.92;;;6.90;79.30;;;;;;5002559;28;20046;-55
2022/01/06 01:33:51;;;;;;;8.02;2.08;;;6.80;79.10;;;;;;5000125;28;20046;-52
2022/01/06 01:36:20;;;;;;;11.95;3.08;;;6.70;79.00;;;;;;4999312;28;20145;-55
2022/01/06 01:38:47;;;;;;;9.52;2.28;;;6.70;79.00;;;;;;4970304;28;20457;-55
2022/01/06 01:41:14;;;;;;;8.32;2.00;;;6.70;79.60;;;;;;4981077;28;20054;-56
2022/01/06 01:43:41;;;;;;;7.43;1.92;;;6.60;78.90;;;;;;4994334;28;20050;-55
2022/01/06 01:46:14;;;;;;;9.00;3.08;;;6.60;78.90;;;;;;5001599;28;20125;-55
2022/01/06 01:48:50;;;;;;;7.45;2.35;;;6.60;78.90;;;;;;5010841;28;20121;-53
2022/01/06 01:51:16;;;;;;;8.60;2.30;;;6.60;79.00;;;;;;5002070;28;20096;-55
2022/01/06 01:53:43;;;;;;;6.35;3.10;;;6.60;79.00;;;;;;4999344;28;20069;-56
2022/01/06 01:56:12;;;;;;;10.98;2.28;;;6.50;79.00;;;;;;5001438;28;20050;-55
2022/01/06 01:58:40;;;;;;;12.00;3.05;;;6.50;79.00;;;;;;5008798;28;20116;-54
2022/01/06 02:01:07;;;;;;;10.07;2.92;;;6.50;79.10;;;;;;4997402;28;20046;-52
2022/01/06 02:03:34;;;;;;;12.02;2.58;;;6.40;79.00;;;;;;4999954;28;20038;-52
2022/01/06 02:06:02;;;;;;;12.80;3.00;;;6.40;79.10;;;;;;4994326;28;20050;-56
2022/01/06 02:08:30;;;;;;;12.00;2.47;;;6.40;79.20;;;;;;5003869;28;20037;-54
2022/01/06 02:10:57;;;;;;;6.68;2.35;;;6.30;79.20;;;;;;4995011;28;20105;-54
2022/01/06 02:13:28;;;;;;;6.43;2.53;;;6.30;79.20;;;;;;5000472;28;20061;-54
2022/01/06 02:16:01;;;;;;;6.05;2.63;;;6.30;79.30;;;;;;5002716;28;20664;-55
2022/01/06 02:18:28;;;;;;;7.35;2.13;;;6.20;79.20;;;;;;5008483;28;20042;-53
2022/01/06 02:20:56;;;;;;;11.57;2.88;;;6.30;79.30;;;;;;5009036;23;20049;-46
2022/01/06 02:23:22;;;;;;;8.20;2.63;;;6.20;79.20;;;;;;5017551;28;20080;-47
2022/01/06 02:25:49;;;;;;;8.75;2.97;;;6.20;79.30;;;;;;5009088;28;20045;-48
2022/01/06 02:28:18;;;;;;;7.32;2.80;;;6.20;79.30;;;;;;5014592;28;20625;-50
2022/01/06 02:30:50;;;;;;;12.18;3.45;;;6.20;79.30;;;;;;5021293;28;20042;-46
2022/01/06 02:33:20;;;;;;;7.47;2.35;;;6.20;79.30;;;;;;5018196;28;20738;-47
2022/01/06 02:35:48;;;;;;;9.02;2.85;;;6.20;79.30;;;;;;5008535;28;20448;-49
2022/01/06 02:38:16;;;;;;;12.38;3.33;;;6.10;79.20;;;;;;5012141;28;20120;-47
2022/01/06 02:40:43;;;;;;;7.07;2.88;;;6.10;79.30;;;;;;4994766;28;20068;-46
2022/01/06 02:43:10;;;;;;;7.65;2.15;;;6.10;79.40;;;;;;5014398;28;20398;-49
2022/01/06 02:45:37;;;;;;;11.45;3.22;;;6.10;79.40;;;;;;5008153;28;20042;-47
2022/01/06 02:48:08;;;;;;;7.88;2.30;;;6.00;79.30;;;;;;5016098;28;20054;-48
2022/01/06 02:50:40;;;;;;;7.88;2.80;;;6.00;79.30;;;;;;5021959;28;20097;-46
2022/01/06 02:53:08;;;;;;;7.03;2.03;;;6.00;79.40;;;;;;5024141;28;20230;-49
2022/01/06 02:55:38;;;;;;;5.80;1.77;;;6.00;79.40;;;;;;5027845;28;20685;-47
2022/01/06 02:58:05;;;;;;;8.82;2.65;;;6.00;79.40;;;;;;5023432;28;20049;-47
2022/01/06 03:00:35;;;;;;;6.68;2.63;;;5.90;79.40;;;;;;5021667;28;20075;-47
2022/01/06 03:03:02;;;;;;;11.60;2.83;;;5.90;79.40;;;;;;5016395;28;20382;-47
2022/01/06 03:05:29;;;;;;;5.70;2.00;;;5.90;79.40;;;;;;5009646;28;20065;-47
2022/01/06 03:07:56;;;;;;;8.50;2.03;;;5.90;79.40;;;;;;5015852;28;20033;-46
2022/01/06 03:10:23;;;;;;;6.75;2.90;;;5.90;79.40;;;;;;5024371;28;20485;-51
2022/01/06 03:12:50;;;;;;;8.38;2.55;;;5.90;79.40;;;;;;5010027;28;20038;-47
2022/01/06 03:15:22;;;;;;;10.85;2.88;;;5.90;79.40;;;;;;5010787;28;20448;-47
2022/01/06 03:17:53;;;;;;;12.05;2.58;;;5.90;79.50;;;;;;5014699;28;20500;-46
2022/01/06 03:20:23;;;;;;;11.40;2.63;;;5.90;79.50;;;;;;5002939;28;20103;-47
2022/01/06 03:22:51;;;;;;;11.40;2.55;;;5.90;79.40;;;;;;5029037;28;20056;-46
2022/01/06 03:25:18;;;;;;;13.00;2.83;;;5.80;79.30;;;;;;5011614;28;20038;-47
2022/01/06 03:27:45;;;;;;;10.25;2.53;;;5.80;79.20;;;;;;5015221;28;20622;-48
2022/01/06 03:30:15;;;;;;;7.85;2.08;;;5.80;79.10;;;;;;5019844;28;20045;-50
2022/01/06 03:32:43;;;;;;;9.20;2.78;;;5.80;79.20;;;;;;5020490;28;20041;-47
2022/01/06 03:35:12;;;;;;;14.10;2.25;;;5.80;79.20;;;;;;5023387;28;20115;-46
2022/01/06 03:37:40;;;;;;;10.05;2.58;;;5.80;79.10;;;;;;5004013;28;20122;-47
2022/01/06 03:40:07;;;;;;;10.13;2.30;;;5.80;79.10;;;;;;5011814;28;20092;-46
2022/01/06 03:42:35;;;;;;;8.35;2.20;;;5.70;79.00;;;;;;5015790;28;20444;-48
2022/01/06 03:45:05;;;;;;;12.40;2.42;;;5.70;79.00;;;;;;5006790;28;20493;-50
2022/01/06 03:47:32;;;;;;;10.15;3.22;;;5.70;79.00;;;;;;5023621;28;20045;-47
2022/01/06 03:50:01;;;;;;;11.30;2.40;;;5.70;78.90;;;;;;5026573;28;20056;-46
2022/01/06 03:52:27;;;;;;;10.35;2.80;;;5.70;79.00;;;;;;5022981;28;20509;-48
2022/01/06 03:54:54;;;;;;;12.20;2.67;;;5.60;78.90;;;;;;5031614;28;20060;-51
2022/01/06 03:57:23;;;;;;;7.45;2.50;;;5.60;79.00;;;;;;5032789;28;20091;-51
2022/01/06 03:59:50;;;;;;;8.57;2.67;;;5.60;79.00;;;;;;5027630;28;20041;-50
2022/01/06 04:02:17;;;;;;;14.13;3.17;;;5.60;79.00;;;;;;5023734;28;20405;-51
2022/01/06 04:04:44;;;;;;;8.93;2.30;;;5.60;79.10;;;;;;5021728;28;20045;-50
2022/01/06 04:07:10;;;;;;;9.07;2.58;;;5.60;79.10;;;;;;5012707;28;20450;-50
2022/01/06 04:09:37;;;;;;;8.65;2.55;;;5.60;79.10;;;;;;5011783;28;20042;-51
2022/01/06 04:12:04;;;;;;;8.13;2.13;;;5.60;79.10;;;;;;5012524;28;20034;-51
2022/01/06 04:14:31;;;;;;;8.05;2.22;;;5.60;79.10;;;;;;5019382;28;20046;-51
2022/01/06 04:16:59;;;;;;;8.05;3.08;;;5.50;79.10;;;;;;5026780;28;20050;-51
2022/01/06 04:19:27;;;;;;;8.55;2.40;;;5.50;79.10;;;;;;5012488;28;20056;-50
2022/01/06 04:21:54;;;;;;;4.68;2.35;;;5.50;79.10;;;;;;5018025;28;20049;-51
2022/01/06 04:24:21;;;;;;;11.98;2.63;;;5.50;79.10;;;;;;5022647;28;20091;-50
2022/01/06 04:26:47;;;;;;;9.90;2.70;;;5.50;79.10;;;;;;5023228;28;20076;-50
2022/01/06 04:29:14;;;;;;;8.68;2.03;;;5.50;79.10;;;;;;5031211;28;20037;-48
2022/01/06 04:31:41;;;;;;;10.43;2.50;;;5.50;79.10;;;;;;5027217;28;20448;-51
2022/01/06 04:34:08;;;;;;;8.82;2.45;;;5.50;79.20;;;;;;5023894;28;20046;-48
2022/01/06 04:36:35;;;;;;;11.20;3.20;;;5.50;79.20;;;;;;5029200;28;20045;-48
2022/01/06 04:39:03;;;;;;;9.60;2.45;;;5.50;79.30;;;;;;5022025;28;20414;-51
2022/01/06 04:41:29;;;;;;;11.00;2.53;;;5.40;79.30;;;;;;4998946;28;20433;-51
2022/01/06 04:43:56;;;;;;;8.15;2.33;;;5.40;79.40;;;;;;5019758;28;20528;-49
2022/01/06 04:46:23;;;;;;;8.43;2.78;;;5.40;79.60;;;;;;5026420;28;20053;-51
2022/01/06 04:48:50;;;;;;;8.80;2.60;;;5.40;80.40;;;;;;5030268;28;20121;-50
2022/01/06 04:51:17;;;;;;;5.97;2.60;;;5.50;79.90;;;;;;5022245;28;20041;-47
2022/01/06 04:53:44;;;;;;;8.50;3.10;;;5.50;80.00;;;;;;5004600;28;20049;-50
2022/01/06 04:56:11;;;;;;;10.93;2.85;;;5.50;80.10;;;;;;5030583;28;20045;-50
2022/01/06 04:58:37;;;;;;;8.15;2.67;;;5.50;80.10;;;;;;5024757;28;20049;-50
2022/01/06 05:01:04;;;;;;;15.00;3.03;;;5.50;79.90;;;;;;5018504;28;20042;-46
2022/01/06 05:03:31;;;;;;;12.20;3.25;;;5.50;79.80;;;;;;5018623;28;20535;-49
2022/01/06 05:05:58;;;;;;;10.45;3.17;;;5.50;79.60;;;;;;5010545;28;20038;-50
2022/01/06 05:08:26;;;;;;;6.63;2.72;;;5.50;79.50;;;;;;5011897;28;20037;-52
2022/01/06 05:10:53;;;;;;;8.68;3.03;;;5.50;79.40;;;;;;5012193;28;20401;-49
2022/01/06 05:13:20;;;;;;;12.25;2.83;;;5.50;79.30;;;;;;5010016;28;20112;-47
2022/01/06 05:15:46;;;;;;;10.63;3.38;;;5.50;79.20;;;;;;5011415;28;20076;-46
2022/01/06 05:18:13;;;;;;;9.85;3.47;;;5.50;79.20;;;;;;5013268;28;20042;-50
2022/01/06 05:20:42;;;;;;;11.88;3.03;;;5.40;79.10;;;;;;5011717;28;20088;-46
2022/01/06 05:23:11;;;;;;;12.98;3.33;;;5.40;79.10;;;;;;5012574;28;20041;-51
2022/01/06 05:25:38;;;;;;;15.20;3.42;;;5.40;79.00;;;;;;5008903;28;20096;-47
2022/01/06 05:28:05;;;;;;;5.38;3.10;;;5.40;79.00;;;;;;5008123;28;20046;-51
2022/01/06 05:30:32;;;;;;;11.52;3.53;;;5.30;79.00;;;;;;5008341;28;20409;-51
2022/01/06 05:32:59;;;;;;;9.18;5.03;;;5.40;79.10;;;;;;5009729;28;20042;-49
2022/01/06 05:35:25;;;;;;;9.27;3.60;;;5.30;79.00;;;;;;5010804;28;20444;-52
2022/01/06 05:37:52;;;;;;;10.50;3.70;;;5.30;79.00;;;;;;5011837;28;20485;-47
2022/01/06 05:40:21;;;;;;;8.90;3.85;;;5.30;79.10;;;;;;5009558;28;20034;-47
2022/01/06 05:42:49;;;;;;;9.52;4.25;;;5.30;79.10;;;;;;5009770;28;20497;-46
2022/01/06 05:45:17;;;;;;;12.25;4.55;;;5.30;79.20;;;;;;5011038;28;20034;-47
2022/01/06 05:47:44;;;;;;;14.98;5.13;;;5.20;79.10;;;;;;5011630;28;20425;-47
2022/01/06 05:50:10;;;;;;;16.80;5.28;;;5.20;79.20;;;;;;5010217;28;20034;-48
2022/01/06 05:52:37;;;;;;;10.38;5.32;;;5.20;79.30;;;;;;5007689;28;20081;-48
2022/01/06 05:55:04;;;;;;;14.27;5.65;;;5.20;79.30;;;;;;5010697;28;20184;-52
2022/01/06 05:57:31;;;;;;;11.38;4.55;;;5.20;79.30;;;;;;5012584;28;20053;-50
2022/01/06 05:59:58;;;;;;;12.10;5.18;;;5.20;79.40;;;;;;5010389;28;20484;-50
2022/01/06 06:02:27;;;;;;;13.52;4.70;;;5.20;79.30;;;;;;5009369;28;20081;-50
2022/01/06 06:04:54;;;;;;;14.43;4.70;;;5.20;79.30;;;;;;5013273;28;20405;-47
2022/01/06 06:07:21;;;;;;;9.93;4.70;;;5.20;79.30;;;;;;5009936;28;20042;-47
2022/01/06 06:09:47;;;;;;;14.00;4.75;;;5.20;79.20;;;;;;5017456;28;20037;-50
2022/01/06 06:12:14;;;;;;;13.77;5.15;;;5.10;79.20;;;;;;5014640;28;20038;-50
2022/01/06 06:14:41;;;;;;;11.07;4.65;;;5.10;79.20;;;;;;5015118;28;20064;-48
2022/01/06 06:17:08;;;;;;;9.10;4.10;;;5.10;79.20;;;;;;5021419;28;20056;-49
2022/01/06 06:19:35;;;;;;;12.75;4.03;;;5.10;79.20;;;;;;5008606;28;20390;-48
2022/01/06 06:22:02;;;;;;;13.20;3.92;;;5.10;79.20;;;;;;5009134;28;20088;-51
2022/01/06 06:24:28;;;;;;;8.73;4.32;;;5.10;79.20;;;;;;5016338;28;20095;-50
2022/01/06 06:26:55;;;;;;;12.40;4.10;;;5.10;79.20;;;;;;5008306;28;20046;-50
2022/01/06 06:29:22;;;;;;;11.52;4.18;;;5.10;79.30;;;;;;5024083;28;20037;-51
2022/01/06 06:31:49;;;;;;;10.02;4.00;;;5.10;79.40;;;;;;5019207;28;20058;-46
2022/01/06 06:34:16;;;;;;;11.70;4.85;;;5.00;79.30;;;;;;5004501;28;20109;-50
2022/01/06 06:36:42;;;;;;;9.93;4.10;;;5.00;79.40;;;;;;5016388;28;20054;-47
2022/01/06 06:39:09;;;;;;;14.38;4.57;;;5.00;79.40;;;;;;5008092;28;20053;-48
2022/01/06 06:41:36;;;;;;;12.05;4.53;;;5.00;79.50;;;;;;5007434;28;20046;-47
2022/01/06 06:44:03;;;;;;;12.40;4.88;;;5.00;79.60;;;;;;4999773;28;20124;-47
2022/01/06 06:46:30;;;;;;;16.50;4.82;;;5.00;79.70;;;;;;5016891;28;20041;-47
2022/01/06 06:48:57;;;;;;;10.88;4.93;;;5.00;79.70;;;;;;5008868;28;20125;-47
2022/01/06 06:51:24;;;;;;;12.52;5.25;;;5.00;79.70;;;;;;5014915;28;20078;-47
2022/01/06 06:53:50;;;;;;;13.52;4.97;;;5.00;79.60;;;;;;5015166;28;20560;-48
2022/01/06 06:56:18;;;;;;;16.13;5.63;;;5.00;79.50;;;;;;5009045;28;20046;-47
2022/01/06 06:58:44;;;;;;;16.25;5.85;;;5.00;79.40;;;;;;5008680;28;20057;-47
2022/01/06 07:01:11;;;;;;;15.20;5.70;;;5.00;79.30;;;;;;5008076;28;20108;-46
2022/01/06 07:03:38;;;;;;;10.38;4.97;;;5.00;79.20;;;;;;5006938;28;20050;-46
2022/01/06 07:06:05;;;;;;;14.73;5.45;;;5.00;79.20;;;;;;5009092;28;20046;-45
2022/01/06 07:08:32;;;;;;;17.38;6.13;;;5.00;79.20;;;;;;5009492;28;20037;-47
2022/01/06 07:10:58;;;;;;;14.27;6.57;;;5.00;79.10;;;;;;4998452;28;20057;-48
2022/01/06 07:13:25;;;;;;;14.82;6.18;;;5.00;79.10;;;;;;5019819;28;20090;-49
2022/01/06 07:15:54;;;;;;;13.80;6.55;;;4.90;79.10;;;;;;5020143;28;20259;-48
2022/01/06 07:18:21;;;;;;;16.20;6.43;;;4.90;79.00;;;;;;5018702;28;20034;-47
2022/01/06 07:20:48;;;;;;;14.23;6.53;;;4.90;79.10;;;;;;5017360;28;20033;-48
2022/01/06 07:23:15;;;;;;;14.70;6.22;;;4.90;79.10;;;;;;5018964;28;20486;-47
2022/01/06 07:25:41;;;;;;;15.25;6.57;;;4.90;79.70;;;;;;5020464;28;20042;-46
2022/01/06 07:28:08;;;;;;;14.25;6.65;;;4.90;79.10;;;;;;5012998;28;20076;-49
2022/01/06 07:30:35;;;;;;;12.55;6.38;;;4.90;79.20;;;;;;5028370;28;20049;-47
2022/01/06 07:33:02;;;;;;;18.55;7.40;;;4.90;79.20;;;;;;5015544;28;20042;-48
2022/01/06 07:35:28;;;;;;;14.07;7.25;;;4.80;79.20;;;;;;5014233;28;20057;-46
2022/01/06 07:37:55;;;;;;;14.25;6.32;;;4.80;79.10;;;;;;5017323;28;20111;-46
2022/01/06 07:40:22;;;;;;;16.52;7.07;;;4.90;79.20;;;;;;5016362;28;20498;-47
2022/01/06 07:42:50;;;;;;;15.65;8.10;;;4.80;79.10;;;;;;5018919;28;20044;-47
2022/01/06 07:45:18;;;;;;;21.58;9.45;;;4.80;79.10;;;;;;5014838;28;20066;-48
2022/01/06 07:47:57;;;;;;;18.67;8.30;;;4.80;79.20;;;;;;5023886;28;20045;-46
2022/01/06 07:50:29;;;;;;;21.40;9.60;;;4.80;79.10;;;;;;5021366;28;20048;-47
2022/01/06 07:52:56;;;;;;;;;;;4.80;79.10;;;;;;5008980;28;20464;-47
2022/01/06 07:55:23;;;;;;;12.93;7.65;;;4.80;79.40;;;;;;5014081;28;19972;-47
2022/01/06 07:57:50;;;;;;;15.38;8.40;;;4.80;79.00;;;;;;5019373;28;20042;-46
2022/01/06 08:00:19;;;;;;;18.90;8.85;;;4.80;79.20;;;;;;5020195;28;20057;-48
2022/01/06 08:02:45;;;;;;;21.17;9.38;;;4.80;79.20;;;;;;5021861;28;20049;-46
2022/01/06 08:05:15;;;;;;;23.05;9.05;;;4.80;79.30;;;;;;5013637;28;20057;-47
2022/01/06 08:07:42;;;;;;;14.65;8.23;;;4.80;79.40;;;;;;5017535;28;20092;-46
2022/01/06 08:10:10;;;;;;;16.25;8.82;;;4.80;79.40;;;;;;5025771;28;20037;-51
2022/01/06 08:12:37;;;;;;;17.63;8.27;;;4.80;79.40;;;;;;5014255;28;20075;-46
2022/01/06 08:15:05;;;;;;;16.00;8.73;;;4.80;79.50;;;;;;5019042;28;20655;-45
2022/01/06 08:17:32;;;;;;;16.95;8.27;;;4.80;79.60;;;;;;5022742;28;20068;-45
2022/01/06 08:19:59;;;;;;;16.17;8.30;;;4.80;79.80;;;;;;5031305;28;20111;-46
2022/01/06 08:22:26;;;;;;;18.48;8.30;;;4.80;79.90;;;;;;5028982;28;20037;-47
2022/01/06 08:24:53;;;;;;;16.00;8.82;;;4.80;79.90;;;;;;5022042;28;20448;-46
2022/01/06 08:27:20;;;;;;;17.55;7.18;;;4.80;79.90;;;;;;5015707;28;20038;-46
2022/01/06 08:29:47;;;;;;;14.57;7.95;;;4.80;80.00;;;;;;5022287;28;20099;-47
2022/01/06 08:32:14;;;;;;;15.70;7.35;;;4.90;80.00;;;;;;5028049;28;20096;-47
2022/01/06 08:34:41;;;;;;;16.45;8.05;;;4.90;80.00;;;;;;5019595;28;20052;-47
2022/01/06 08:37:08;;;;;;;18.65;9.07;;;4.90;80.00;;;;;;5022422;28;20436;-46
2022/01/06 08:39:35;;;;;;;17.58;8.07;;;4.90;80.00;;;;;;5028547;28;20050;-49
2022/01/06 08:42:03;;;;;;;20.08;9.65;;;4.90;80.00;;;;;;5032012;28;20049;-49
2022/01/06 08:44:30;;;;;;;22.17;10.15;;;4.90;80.00;;;;;;5024416;28;20049;-50
2022/01/06 08:46:58;;;;;;;19.42;10.38;;;4.90;80.10;;;;;;5026071;28;20038;-50
2022/01/06 08:49:25;;;;;;;18.77;10.38;;;5.00;80.20;;;;;;5040271;22;20045;-47
2022/01/06 08:51:52;;;;;;;22.92;11.88;;;5.00;80.20;;;;;;5030763;28;20049;-45
2022/01/06 08:54:21;;;;;;;17.27;9.98;;;5.00;80.30;;;;;;5030675;28;20052;-46
2022/01/06 08:56:47;;;;;;;21.67;10.05;;;5.00;80.30;;;;;;5029868;28;20049;-46
2022/01/06 08:59:14;;;;;;;19.30;9.75;;;5.00;80.20;;;;;;5040391;28;20057;-45
2022/01/06 09:01:41;;;;;;;20.05;8.80;;;5.10;80.30;;;;;;5025219;28;20053;-46
2022/01/06 09:04:08;;;;;;;18.23;8.80;;;5.10;80.30;;;;;;5030202;28;20140;-47
2022/01/06 09:06:35;;;;;;;19.35;8.52;;;5.10;80.30;;;;;;5031141;28;20466;-45
2022/01/06 09:09:02;;;;;;;18.25;9.48;;;5.10;80.30;;;;;;5030531;28;20042;-44
2022/01/06 09:11:29;;;;;;;19.20;7.32;;;5.10;80.40;;;;;;5012415;28;20049;-44
2022/01/06 09:13:56;;;;;;;18.27;8.23;;;5.10;80.40;;;;;;5036211;28;20061;-45
2022/01/06 09:16:23;;;;;;;16.38;7.80;;;5.10;80.40;;;;;;5046619;28;20103;-48
2022/01/06 09:18:50;;;;;;;14.63;7.72;;;5.20;80.50;;;;;;5029966;28;20050;-45
2022/01/06 09:21:22;;;;;;;20.85;9.38;;;5.20;80.50;;;;;;5028206;28;20087;-46
2022/01/06 09:23:50;;;;;;;17.10;8.93;;;5.20;80.60;;;;;;5037087;28;20041;-46
2022/01/06 09:26:18;;;;;;;17.35;8.38;;;5.20;80.60;;;;;;5037247;28;20482;-48
2022/01/06 09:28:45;;;;;;;18.70;7.70;;;5.20;80.60;;;;;;5033180;28;20033;-48
2022/01/06 09:31:12;;;;;;;16.70;7.20;;;5.20;80.60;;;;;;5029120;28;20507;-45
2022/01/06 09:33:39;;;;;;;15.38;8.48;;;5.30;80.70;;;;;;5037146;28;20463;-47
2022/01/06 09:36:06;;;;;;;15.45;8.00;;;5.30;80.70;;;;;;5043478;28;20104;-45
2022/01/06 09:38:33;;;;;;;19.50;8.50;;;5.30;80.80;;;;;;5049949;28;20135;-45
2022/01/06 09:41:06;;;;;;;21.80;9.70;;;5.30;80.90;;;;;;5043305;28;20053;-46
2022/01/06 09:43:34;;;;;;;;;;;5.40;81.10;;;;;;5027907;28;20041;-45
2022/01/06 09:46:02;;;;;;;18.95;7.82;;;5.40;81.70;;;;;;5029612;28;19974;-44
2022/01/06 09:48:31;;;;;;;20.90;7.13;;;5.50;80.90;;;;;;5034657;28;20033;-43
2022/01/06 09:50:57;;;;;;;15.68;6.65;;;5.50;81.10;;;;;;5035873;28;20096;-45
2022/01/06 09:53:26;;;;;;;24.88;8.57;;;5.50;81.00;;;;;;5025489;28;20073;-44
2022/01/06 09:55:54;;;;;;;15.68;7.97;;;5.60;81.20;;;;;;5022626;28;20037;-46
2022/01/06 09:58:25;;;;;;;15.35;8.75;;;5.60;81.20;;;;;;5033180;28;20110;-45
2022/01/06 10:00:55;;;;;;;20.05;10.32;;;5.70;81.30;;;;;;5029453;28;20094;-46
2022/01/06 10:03:38;;;;;;;24.80;13.27;;;5.70;81.40;;;;;;5040588;28;20106;-44
2022/01/06 10:06:10;;;;;;;24.27;12.63;;;5.70;81.30;;;;;;5033438;28;20045;-45
2022/01/06 10:08:37;;;;;;;23.90;11.73;;;5.80;81.30;;;;;;5025332;28;20058;-45
2022/01/06 10:11:19;;;;;;;25.95;14.60;;;5.80;81.10;;;;;;5036752;28;20033;-45
2022/01/06 10:13:56;;;;;;;21.55;14.50;;;5.80;81.30;;;;;;5040925;28;20041;-45
2022/01/06 10:16:24;;;;;;;27.63;13.50;;;5.80;81.20;;;;;;5039364;28;20505;-45
2022/01/06 10:18:58;;;;;;;26.08;13.15;;;5.90;81.20;;;;;;5035579;28;20037;-44
2022/01/06 10:21:30;;;;;;;26.27;12.95;;;5.90;81.30;;;;;;5038354;28;20056;-45
2022/01/06 10:24:02;;;;;;;29.40;13.90;;;5.90;81.20;;;;;;5028964;28;20079;-45
2022/01/06 10:26:30;;;;;;;26.25;14.40;;;6.00;81.20;;;;;;5028541;28;20069;-46
2022/01/06 10:28:57;;;;;;;39.10;16.25;;;6.00;81.20;;;;;;5029578;28;20164;-44
2022/01/06 10:31:29;;;;;;;32.42;17.38;;;6.00;81.20;;;;;;5037246;28;20086;-43
2022/01/06 10:33:57;;;;;;;32.22;18.67;;;6.10;81.30;;;;;;5027612;28;20122;-44
2022/01/06 10:36:29;;;;;;;37.55;20.50;;;6.10;81.20;;;;;;5023508;28;20088;-44
2022/01/06 10:39:01;;;;;;;31.60;17.27;;;6.10;81.20;;;;;;5035656;28;20504;-45
2022/01/06 10:41:28;;;;;;;23.88;14.98;;;6.10;81.20;;;;;;5040946;28;20504;-48
2022/01/06 10:43:57;;;;;;;37.45;21.02;;;6.20;81.20;;;;;;5025012;28;20041;-46
2022/01/06 10:46:34;;;;;;;34.17;19.58;;;6.20;81.30;;;;;;5030893;28;20042;-47
2022/01/06 10:49:16;;;;;;;33.80;19.25;;;6.20;81.30;;;;;;5036136;28;20044;-44
2022/01/06 10:51:49;;;;;;;39.65;22.70;;;6.30;81.50;;;;;;5029304;28;20083;-45
2022/01/06 10:54:22;;;;;;;39.17;21.83;;;6.30;81.30;;;;;;5021777;28;20530;-44
2022/01/06 10:57:00;;;;;;;31.73;16.27;;;6.40;81.30;;;;;;5022452;28;20033;-45
2022/01/06 10:59:31;;;;;;;28.77;14.73;;;6.40;81.40;;;;;;5040224;28;20083;-44
2022/01/06 11:01:59;;;;;;;26.42;13.82;;;6.40;81.30;;;;;;5021406;28;20041;-47
2022/01/06 11:04:28;;;;;;;25.23;12.05;;;6.50;81.60;;;;;;5024975;28;20107;-48
2022/01/06 11:06:56;;;;;;;21.90;11.32;;;6.50;81.60;;;;;;5020087;28;20045;-44
2022/01/06 11:09:22;;;;;;;23.33;10.88;;;6.60;81.50;;;;;;5043695;28;20053;-44
2022/01/06 11:14:26;;;;;;;19.77;9.40;;;6.70;81.30;;;;;;5026278;28;20068;-47
2022/01/06 11:16:52;;;;;;;20.08;9.50;;;6.70;81.30;;;;;;5028923;28;20033;-49
2022/01/06 11:19:25;;;;;;;18.40;9.10;;;6.70;81.30;;;;;;5043198;28;20045;-48
2022/01/06 11:21:56;;;;;;;17.40;10.43;;;6.80;81.50;;;;;;5047715;28;20405;-46
2022/01/06 11:24:24;;;;;;;18.15;9.18;;;6.90;81.70;;;;;;5036126;28;20049;-45
2022/01/06 11:27:08;;;;;;;17.85;10.05;;;6.90;81.60;;;;;;5037607;28;20037;-45
2022/01/06 11:29:43;;;;;;;19.75;10.35;;;7.00;81.60;;;;;;5028131;28;20042;-45
2022/01/06 11:32:20;;;;;;;15.23;8.93;;;7.00;81.10;;;;;;5019557;28;20100;-44
2022/01/06 11:34:51;;;;;;;17.25;10.07;;;7.10;80.90;;;;;;5022946;28;20112;-45
2022/01/06 11:37:18;;;;;;;22.15;11.60;;;7.10;80.70;;;;;;5028746;28;20045;-47
2022/01/06 11:39:44;;;;;;;21.75;11.18;;;7.10;80.50;;;;;;5025576;28;20037;-46
2022/01/06 11:42:18;;;;;;;24.00;13.48;;;7.10;80.40;;;;;;5028827;28;20049;-49
2022/01/06 11:44:53;;;;;;;15.07;9.68;;;7.20;80.30;;;;;;5035783;28;20559;-46
2022/01/06 11:47:38;;;;;;;18.67;9.82;;;7.20;80.30;;;;;;5031796;28;20087;-45
2022/01/06 11:50:24;;;;;;;14.23;8.75;;;7.20;80.30;;;;;;5035231;28;20106;-46
2022/01/06 11:52:52;;;;;;;19.33;8.30;;;7.20;80.20;;;;;;5030093;28;20041;-49
2022/01/06 11:55:22;;;;;;;15.73;8.25;;;7.20;80.20;;;;;;5009650;28;20065;-47
2022/01/06 11:57:49;;;;;;;15.40;8.95;;;7.30;80.20;;;;;;5033392;28;20521;-45
2022/01/06 12:00:25;;;;;;;15.57;8.75;;;7.30;80.20;;;;;;5029841;28;20073;-45
2022/01/06 12:03:11;;;;;;;21.35;9.52;;;7.30;80.20;;;;;;5032601;28;20044;-47
2022/01/06 12:05:52;;;;;;;17.67;7.85;;;7.30;80.10;;;;;;5027585;28;20040;-46
2022/01/06 12:08:34;;;;;;;14.68;7.13;;;7.40;80.20;;;;;;5029943;28;20041;-47
2022/01/06 12:11:02;;;;;;;16.95;7.80;;;7.40;80.10;;;;;;5030932;28;20045;-46
2022/01/06 12:13:28;;;;;;;15.35;6.63;;;7.40;80.10;;;;;;5031621;28;20430;-47
2022/01/06 12:15:57;;;;;;;14.00;7.10;;;7.40;80.00;;;;;;5021615;28;20041;-45
2022/01/06 12:18:26;;;;;;;16.55;6.95;;;7.40;80.00;;;;;;5029423;28;20524;-45
2022/01/06 12:20:55;;;;;;;22.65;8.05;;;7.50;80.20;;;;;;5027890;28;20049;-45
2022/01/06 12:23:23;;;;;;;15.38;7.78;;;7.50;80.30;;;;;;5028980;28;20048;-49
2022/01/06 12:26:03;;;;;;;16.83;7.25;;;7.60;80.60;;;;;;5030488;28;20049;-49
2022/01/06 12:28:32;;;;;;;12.40;6.72;;;7.60;80.70;;;;;;5027831;28;20771;-47
2022/01/06 12:31:01;;;;;;;14.43;6.57;;;7.70;80.80;;;;;;5029431;28;20038;-47
2022/01/06 12:33:30;;;;;;;18.48;6.97;;;7.80;80.60;;;;;;5030755;28;20038;-47
2022/01/06 12:35:58;;;;;;;19.77;7.00;;;7.80;80.20;;;;;;5028672;28;20041;-49
2022/01/06 12:38:30;;;;;;;15.05;6.00;;;7.90;80.00;;;;;;5031043;28;20155;-46
2022/01/06 12:40:58;;;;;;;20.05;6.80;;;7.90;79.60;;;;;;5031726;28;20042;-45
2022/01/06 12:43:41;;;;;;;19.05;8.23;;;7.90;79.70;;;;;;5030654;28;20041;-48
2022/01/06 12:46:17;;;;;;;17.48;8.88;;;8.00;79.70;;;;;;5028275;28;20122;-45
2022/01/06 12:48:49;;;;;;;15.70;7.90;;;8.10;79.50;;;;;;5031305;28;20279;-46
2022/01/06 12:51:23;;;;;;;16.60;7.93;;;8.10;79.20;;;;;;5033280;28;20029;-49
2022/01/06 12:53:58;;;;;;;20.92;7.72;;;8.10;78.90;;;;;;5031155;28;20045;-49
2022/01/06 12:56:25;;;;;;;14.02;7.55;;;8.10;78.70;;;;;;5027540;28;20045;-49
2022/01/06 12:58:55;;;;;;;17.27;7.22;;;8.20;78.60;;;;;;5030230;28;20036;-47
2022/01/06 13:01:22;;;;;;;14.15;6.97;;;8.20;78.40;;;;;;5033669;28;20041;-47
2022/01/06 13:03:53;;;;;;;12.68;7.25;;;8.20;78.50;;;;;;5031458;28;20119;-49
2022/01/06 13:06:29;;;;;;;19.77;8.03;;;8.20;78.60;;;;;;5024188;28;20053;-46